sensor_id;sensor_type;location;lat;lon;timestamp;P1;durP1;ratioP1;P2;durP2;ratioP2
3841;SDS011;1936;47.074;15.336;2024-03-23T00:55:24;3.50;;;2.77;;
3841;SDS011;1936;47.074;15.336;2024-03-23T00:57:25;3.93;;;3.27;;
3841;SDS011;1936;47.074;15.336;2024-03-23T00:59:28;3.70;;;2.88;;
3841;SDS011;1936;47.074;15.336;2024-03-23T01:01:31;3.20;;;2.90;;
3841;SDS011;1936;47.074;15.336;2024-03-23T01:03:34;4.80;;;3.40;;
3841;SDS011;1936;47.074;15.336;2024-03-23T01:05:35;5.93;;;2.75;;
3841;SDS011;1936;47.074;15.336;2024-03-23T01:07:39;5.67;;;3.97;;
3841;SDS011;1936;47.074;15.336;2024-03-23T01:09:41;3.30;;;3.00;;
3841;SDS011;1936;47.074;15.336;2024-03-23T01:11:43;5.82;;;2.97;;
3841;SDS011;1936;47.074;15.336;2024-03-23T01:13:45;3.80;;;2.67;;
3841;SDS011;1936;47.074;15.336;2024-03-23T01:15:48;4.93;;;3.05;;
3841;SDS011;1936;47.074;15.336;2024-03-23T01:17:50;6.22;;;3.58;;
3841;SDS011;1936;47.074;15.336;2024-03-23T01:19:53;4.22;;;2.95;;
3841;SDS011;1936;47.074;15.336;2024-03-23T01:21:54;4.55;;;3.20;;
3841;SDS011;1936;47.074;15.336;2024-03-23T01:23:58;4.45;;;2.78;;
3841;SDS011;1936;47.074;15.336;2024-03-23T01:25:59;3.42;;;2.92;;
3841;SDS011;1936;47.074;15.336;2024-03-23T01:28:02;5.82;;;3.17;;
3841;SDS011;1936;47.074;15.336;2024-03-23T01:30:05;3.75;;;2.75;;
3841;SDS011;1936;47.074;15.336;2024-03-23T01:32:08;3.70;;;3.25;;
3841;SDS011;1936;47.074;15.336;2024-03-23T01:34:10;3.30;;;2.90;;
3841;SDS011;1936;47.074;15.336;2024-03-23T01:36:13;3.28;;;2.85;;
3841;SDS011;1936;47.074;15.336;2024-03-23T01:38:14;3.90;;;3.50;;
3841;SDS011;1936;47.074;15.336;2024-03-23T01:40:18;2.95;;;2.70;;
3841;SDS011;1936;47.074;15.336;2024-03-23T01:42:20;4.90;;;3.20;;
3841;SDS011;1936;47.074;15.336;2024-03-23T01:44:22;5.80;;;2.88;;
3841;SDS011;1936;47.074;15.336;2024-03-23T01:46:23;2.97;;;2.65;;
3841;SDS011;1936;47.074;15.336;2024-03-23T01:48:27;3.33;;;2.65;;
3841;SDS011;1936;47.074;15.336;2024-03-23T01:50:29;3.50;;;2.65;;
3841;SDS011;1936;47.074;15.336;2024-03-23T01:52:34;4.65;;;2.60;;
3841;SDS011;1936;47.074;15.336;2024-03-23T01:54:35;13.85;;;4.45;;
3841;SDS011;1936;47.074;15.336;2024-03-23T01:56:38;4.28;;;2.78;;
3841;SDS011;1936;47.074;15.336;2024-03-23T01:58:41;5.65;;;3.15;;
3841;SDS011;1936;47.074;15.336;2024-03-23T02:00:42;7.60;;;2.90;;
3841;SDS011;1936;47.074;15.336;2024-03-23T02:02:45;8.00;;;2.70;;
3841;SDS011;1936;47.074;15.336;2024-03-23T02:04:46;10.98;;;3.28;;
3841;SDS011;1936;47.074;15.336;2024-03-23T02:06:49;4.07;;;3.10;;
3841;SDS011;1936;47.074;15.336;2024-03-23T02:08:50;4.85;;;3.25;;
3841;SDS011;1936;47.074;15.336;2024-03-23T02:10:52;4.82;;;3.28;;
3841;SDS011;1936;47.074;15.336;2024-03-23T02:12:55;3.45;;;3.15;;
3841;SDS011;1936;47.074;15.336;2024-03-23T02:14:57;3.15;;;2.90;;
3841;SDS011;1936;47.074;15.336;2024-03-23T02:16:59;2.75;;;2.55;;
3841;SDS011;1936;47.074;15.336;2024-03-23T02:19:01;3.22;;;2.55;;
3841;SDS011;1936;47.074;15.336;2024-03-23T02:21:03;3.33;;;2.90;;
3841;SDS011;1936;47.074;15.336;2024-03-23T02:23:10;3.25;;;2.85;;
3841;SDS011;1936;47.074;15.336;2024-03-23T02:25:15;6.63;;;2.83;;
3841;SDS011;1936;47.074;15.336;2024-03-23T02:27:17;3.55;;;2.60;;
3841;SDS011;1936;47.074;15.336;2024-03-23T02:29:19;2.78;;;2.47;;
3841;SDS011;1936;47.074;15.336;2024-03-23T02:31:21;9.10;;;3.67;;
3841;SDS011;1936;47.074;15.336;2024-03-23T02:33:22;2.63;;;2.42;;
3841;SDS011;1936;47.074;15.336;2024-03-23T02:35:25;3.60;;;3.08;;
3841;SDS011;1936;47.074;15.336;2024-03-23T02:37:26;3.72;;;3.17;;
3841;SDS011;1936;47.074;15.336;2024-03-23T02:39:30;2.65;;;2.33;;
3841;SDS011;1936;47.074;15.336;2024-03-23T02:41:32;2.75;;;2.55;;
3841;SDS011;1936;47.074;15.336;2024-03-23T02:43:34;4.07;;;3.20;;
3841;SDS011;1936;47.074;15.336;2024-03-23T02:45:35;3.97;;;3.58;;
3841;SDS011;1936;47.074;15.336;2024-03-23T02:47:38;3.35;;;2.33;;
3841;SDS011;1936;47.074;15.336;2024-03-23T02:49:40;4.35;;;2.75;;
3841;SDS011;1936;47.074;15.336;2024-03-23T02:51:42;3.00;;;2.65;;
3841;SDS011;1936;47.074;15.336;2024-03-23T02:53:45;3.25;;;2.95;;
3841;SDS011;1936;47.074;15.336;2024-03-23T02:55:48;4.28;;;2.90;;
3841;SDS011;1936;47.074;15.336;2024-03-23T02:57:51;4.47;;;3.00;;
3841;SDS011;1936;47.074;15.336;2024-03-23T02:59:53;3.15;;;2.85;;
3841;SDS011;1936;47.074;15.336;2024-03-23T03:01:55;3.55;;;3.25;;
3841;SDS011;1936;47.074;15.336;2024-03-23T03:03:57;3.63;;;2.47;;
3841;SDS011;1936;47.074;15.336;2024-03-23T03:05:59;3.10;;;2.60;;
3841;SDS011;1936;47.074;15.336;2024-03-23T03:08:01;2.75;;;2.55;;
3841;SDS011;1936;47.074;15.336;2024-03-23T03:10:03;5.10;;;3.30;;
3841;SDS011;1936;47.074;15.336;2024-03-23T03:12:08;2.67;;;2.40;;
3841;SDS011;1936;47.074;15.336;2024-03-23T03:14:11;3.53;;;3.22;;
3841;SDS011;1936;47.074;15.336;2024-03-23T03:16:12;4.03;;;2.97;;
3841;SDS011;1936;47.074;15.336;2024-03-23T03:18:15;4.50;;;3.20;;
3841;SDS011;1936;47.074;15.336;2024-03-23T03:20:16;3.40;;;3.08;;
3841;SDS011;1936;47.074;15.336;2024-03-23T03:22:19;3.70;;;3.40;;
3841;SDS011;1936;47.074;15.336;2024-03-23T03:24:21;3.50;;;3.00;;
3841;SDS011;1936;47.074;15.336;2024-03-23T03:26:23;4.63;;;3.70;;
3841;SDS011;1936;47.074;15.336;2024-03-23T03:28:26;5.82;;;3.10;;
3841;SDS011;1936;47.074;15.336;2024-03-23T03:30:31;4.03;;;3.53;;
3841;SDS011;1936;47.074;15.336;2024-03-23T03:32:32;3.20;;;2.90;;
3841;SDS011;1936;47.074;15.336;2024-03-23T03:34:34;4.38;;;3.17;;
3841;SDS011;1936;47.074;15.336;2024-03-23T03:36:36;4.45;;;3.55;;
3841;SDS011;1936;47.074;15.336;2024-03-23T03:38:38;5.35;;;3.45;;
3841;SDS011;1936;47.074;15.336;2024-03-23T03:40:41;5.45;;;3.20;;
3841;SDS011;1936;47.074;15.336;2024-03-23T03:42:44;4.72;;;2.83;;
3841;SDS011;1936;47.074;15.336;2024-03-23T03:44:47;3.28;;;2.97;;
3841;SDS011;1936;47.074;15.336;2024-03-23T03:46:49;3.15;;;2.85;;
3841;SDS011;1936;47.074;15.336;2024-03-23T03:48:50;3.53;;;3.22;;
3841;SDS011;1936;47.074;15.336;2024-03-23T03:50:53;4.47;;;3.92;;
3841;SDS011;1936;47.074;15.336;2024-03-23T03:52:54;3.53;;;2.65;;
3841;SDS011;1936;47.074;15.336;2024-03-23T03:54:59;3.72;;;3.03;;
3841;SDS011;1936;47.074;15.336;2024-03-23T03:57:02;4.13;;;3.03;;
3841;SDS011;1936;47.074;15.336;2024-03-23T03:59:06;3.83;;;2.92;;
3841;SDS011;1936;47.074;15.336;2024-03-23T04:01:09;6.03;;;3.40;;
3841;SDS011;1936;47.074;15.336;2024-03-23T04:03:11;5.95;;;3.45;;
3841;SDS011;1936;47.074;15.336;2024-03-23T04:05:13;3.58;;;3.17;;
3841;SDS011;1936;47.074;15.336;2024-03-23T04:07:14;3.97;;;3.58;;
3841;SDS011;1936;47.074;15.336;2024-03-23T04:09:17;7.25;;;2.90;;
3841;SDS011;1936;47.074;15.336;2024-03-23T04:11:19;3.35;;;3.05;;
3841;SDS011;1936;47.074;15.336;2024-03-23T04:13:22;3.95;;;3.08;;
3841;SDS011;1936;47.074;15.336;2024-03-23T04:15:23;3.75;;;3.45;;
3841;SDS011;1936;47.074;15.336;2024-03-23T04:17:27;2.50;;;2.30;;
3841;SDS011;1936;47.074;15.336;2024-03-23T04:19:32;3.20;;;2.88;;
3841;SDS011;1936;47.074;15.336;2024-03-23T04:21:35;3.90;;;3.50;;
3841;SDS011;1936;47.074;15.336;2024-03-23T04:23:36;3.05;;;2.85;;
3841;SDS011;1936;47.074;15.336;2024-03-23T04:25:39;11.88;;;3.13;;
3841;SDS011;1936;47.074;15.336;2024-03-23T04:27:40;3.55;;;3.05;;
3841;SDS011;1936;47.074;15.336;2024-03-23T04:29:46;5.07;;;3.20;;
3841;SDS011;1936;47.074;15.336;2024-03-23T04:31:48;3.40;;;3.20;;
3841;SDS011;1936;47.074;15.336;2024-03-23T04:33:53;3.75;;;3.03;;
3841;SDS011;1936;47.074;15.336;2024-03-23T04:35:54;3.40;;;3.10;;
3841;SDS011;1936;47.074;15.336;2024-03-23T04:37:57;5.10;;;3.05;;
3841;SDS011;1936;47.074;15.336;2024-03-23T04:40:00;3.20;;;2.90;;
3841;SDS011;1936;47.074;15.336;2024-03-23T04:42:02;3.70;;;2.67;;
3841;SDS011;1936;47.074;15.336;2024-03-23T04:44:04;3.38;;;3.08;;
3841;SDS011;1936;47.074;15.336;2024-03-23T04:46:07;4.10;;;3.47;;
3841;SDS011;1936;47.074;15.336;2024-03-23T04:48:09;3.97;;;3.22;;
3841;SDS011;1936;47.074;15.336;2024-03-23T04:50:12;3.40;;;2.80;;
3841;SDS011;1936;47.074;15.336;2024-03-23T04:52:14;4.22;;;3.58;;
3841;SDS011;1936;47.074;15.336;2024-03-23T04:54:16;5.15;;;3.47;;
3841;SDS011;1936;47.074;15.336;2024-03-23T04:56:19;3.40;;;3.10;;
3841;SDS011;1936;47.074;15.336;2024-03-23T04:58:20;3.60;;;3.13;;
3841;SDS011;1936;47.074;15.336;2024-03-23T05:00:23;8.63;;;3.40;;
3841;SDS011;1936;47.074;15.336;2024-03-23T05:02:25;3.38;;;3.05;;
3841;SDS011;1936;47.074;15.336;2024-03-23T05:04:28;6.25;;;3.53;;
3841;SDS011;1936;47.074;15.336;2024-03-23T05:06:31;5.07;;;3.20;;
3841;SDS011;1936;47.074;15.336;2024-03-23T05:08:34;5.50;;;3.83;;
3841;SDS011;1936;47.074;15.336;2024-03-23T05:10:36;3.58;;;2.72;;
3841;SDS011;1936;47.074;15.336;2024-03-23T05:12:38;5.95;;;3.90;;
3841;SDS011;1936;47.074;15.336;2024-03-23T05:14:40;2.90;;;2.70;;
3841;SDS011;1936;47.074;15.336;2024-03-23T05:16:42;3.40;;;3.10;;
3841;SDS011;1936;47.074;15.336;2024-03-23T05:18:44;4.10;;;2.80;;
3841;SDS011;1936;47.074;15.336;2024-03-23T05:20:46;3.65;;;2.90;;
3841;SDS011;1936;47.074;15.336;2024-03-23T05:22:49;6.25;;;3.03;;
3841;SDS011;1936;47.074;15.336;2024-03-23T05:24:52;4.05;;;3.60;;
3841;SDS011;1936;47.074;15.336;2024-03-23T05:26:53;3.30;;;2.97;;
3841;SDS011;1936;47.074;15.336;2024-03-23T05:28:56;3.67;;;3.38;;
3841;SDS011;1936;47.074;15.336;2024-03-23T05:30:58;3.00;;;2.70;;
3841;SDS011;1936;47.074;15.336;2024-03-23T05:33:00;6.00;;;3.72;;
3841;SDS011;1936;47.074;15.336;2024-03-23T05:35:01;5.30;;;2.90;;
3841;SDS011;1936;47.074;15.336;2024-03-23T05:37:04;3.72;;;3.42;;
3841;SDS011;1936;47.074;15.336;2024-03-23T05:39:07;5.47;;;3.17;;
3841;SDS011;1936;47.074;15.336;2024-03-23T05:41:09;4.43;;;3.40;;
3841;SDS011;1936;47.074;15.336;2024-03-23T05:43:11;5.25;;;2.97;;
3841;SDS011;1936;47.074;15.336;2024-03-23T05:45:13;4.65;;;3.25;;
3841;SDS011;1936;47.074;15.336;2024-03-23T05:47:14;4.30;;;3.20;;
3841;SDS011;1936;47.074;15.336;2024-03-23T05:49:17;4.47;;;2.85;;
3841;SDS011;1936;47.074;15.336;2024-03-23T05:51:19;3.75;;;3.42;;
3841;SDS011;1936;47.074;15.336;2024-03-23T05:53:22;3.03;;;2.70;;
3841;SDS011;1936;47.074;15.336;2024-03-23T05:55:25;3.30;;;3.00;;
3841;SDS011;1936;47.074;15.336;2024-03-23T05:57:28;5.90;;;3.40;;
3841;SDS011;1936;47.074;15.336;2024-03-23T05:59:29;4.33;;;3.57;;
3841;SDS011;1936;47.074;15.336;2024-03-23T06:01:32;5.73;;;3.27;;
3841;SDS011;1936;47.074;15.336;2024-03-23T06:03:33;3.55;;;3.25;;
3841;SDS011;1936;47.074;15.336;2024-03-23T06:05:36;3.33;;;3.03;;
3841;SDS011;1936;47.074;15.336;2024-03-23T06:07:37;3.20;;;2.90;;
3841;SDS011;1936;47.074;15.336;2024-03-23T06:09:40;4.13;;;3.60;;
3841;SDS011;1936;47.074;15.336;2024-03-23T06:11:42;3.47;;;3.17;;
3841;SDS011;1936;47.074;15.336;2024-03-23T06:13:45;3.20;;;2.90;;
3841;SDS011;1936;47.074;15.336;2024-03-23T06:15:46;3.60;;;3.30;;
3841;SDS011;1936;47.074;15.336;2024-03-23T06:17:49;4.30;;;3.20;;
3841;SDS011;1936;47.074;15.336;2024-03-23T06:19:51;4.20;;;2.33;;
3841;SDS011;1936;47.074;15.336;2024-03-23T06:21:53;3.73;;;3.43;;
3841;SDS011;1936;47.074;15.336;2024-03-23T06:23:55;3.50;;;3.10;;
3841;SDS011;1936;47.074;15.336;2024-03-23T06:25:57;5.10;;;4.00;;
3841;SDS011;1936;47.074;15.336;2024-03-23T06:28:00;4.30;;;2.33;;
3841;SDS011;1936;47.074;15.336;2024-03-23T06:30:04;3.80;;;2.60;;
3841;SDS011;1936;47.074;15.336;2024-03-23T06:32:06;5.67;;;2.90;;
3841;SDS011;1936;47.074;15.336;2024-03-23T06:34:09;3.20;;;2.50;;
3841;SDS011;1936;47.074;15.336;2024-03-23T06:36:10;4.30;;;3.40;;
3841;SDS011;1936;47.074;15.336;2024-03-23T06:38:12;3.17;;;2.80;;
3841;SDS011;1936;47.074;15.336;2024-03-23T06:40:14;3.90;;;3.00;;
3841;SDS011;1936;47.074;15.336;2024-03-23T06:42:16;4.43;;;3.10;;
3841;SDS011;1936;47.074;15.336;2024-03-23T06:44:19;5.77;;;3.00;;
3841;SDS011;1936;47.074;15.336;2024-03-23T06:46:22;3.93;;;3.10;;
3841;SDS011;1936;47.074;15.336;2024-03-23T06:48:23;4.00;;;2.80;;
3841;SDS011;1936;47.074;15.336;2024-03-23T06:50:26;4.53;;;3.13;;
3841;SDS011;1936;47.074;15.336;2024-03-23T06:52:28;3.70;;;2.77;;
3841;SDS011;1936;47.074;15.336;2024-03-23T06:54:30;4.23;;;3.03;;
3841;SDS011;1936;47.074;15.336;2024-03-23T06:56:33;3.30;;;2.20;;
3841;SDS011;1936;47.074;15.336;2024-03-23T06:58:34;8.03;;;3.10;;
3841;SDS011;1936;47.074;15.336;2024-03-23T07:00:43;3.10;;;2.80;;
3841;SDS011;1936;47.074;15.336;2024-03-23T07:02:45;3.37;;;2.77;;
3841;SDS011;1936;47.074;15.336;2024-03-23T07:04:48;6.57;;;3.20;;
3841;SDS011;1936;47.074;15.336;2024-03-23T07:06:50;3.80;;;2.70;;
3841;SDS011;1936;47.074;15.336;2024-03-23T07:08:52;7.50;;;2.53;;
3841;SDS011;1936;47.074;15.336;2024-03-23T07:10:53;4.33;;;2.30;;
3841;SDS011;1936;47.074;15.336;2024-03-23T07:12:56;3.30;;;2.50;;
3841;SDS011;1936;47.074;15.336;2024-03-23T07:14:57;3.07;;;2.77;;
3841;SDS011;1936;47.074;15.336;2024-03-23T07:17:02;4.63;;;2.80;;
3841;SDS011;1936;47.074;15.336;2024-03-23T07:19:03;3.13;;;2.80;;
3841;SDS011;1936;47.074;15.336;2024-03-23T07:21:06;3.80;;;3.50;;
3841;SDS011;1936;47.074;15.336;2024-03-23T07:23:07;5.07;;;3.70;;
3841;SDS011;1936;47.074;15.336;2024-03-23T07:25:10;9.63;;;3.63;;
3841;SDS011;1936;47.074;15.336;2024-03-23T07:27:11;6.90;;;2.20;;
3841;SDS011;1936;47.074;15.336;2024-03-23T07:29:14;5.23;;;2.77;;
3841;SDS011;1936;47.074;15.336;2024-03-23T07:31:15;3.10;;;2.60;;
3841;SDS011;1936;47.074;15.336;2024-03-23T07:33:19;5.50;;;3.57;;
3841;SDS011;1936;47.074;15.336;2024-03-23T07:35:21;4.13;;;2.70;;
3841;SDS011;1936;47.074;15.336;2024-03-23T07:37:23;3.07;;;2.70;;
3841;SDS011;1936;47.074;15.336;2024-03-23T07:39:26;4.23;;;3.40;;
3841;SDS011;1936;47.074;15.336;2024-03-23T07:41:29;3.30;;;2.07;;
3841;SDS011;1936;47.074;15.336;2024-03-23T07:43:31;4.87;;;3.23;;
3841;SDS011;1936;47.074;15.336;2024-03-23T07:45:33;3.73;;;2.53;;
3841;SDS011;1936;47.074;15.336;2024-03-23T07:47:35;6.50;;;3.03;;
3841;SDS011;1936;47.074;15.336;2024-03-23T07:49:39;5.57;;;3.43;;
3841;SDS011;1936;47.074;15.336;2024-03-23T07:51:41;4.77;;;3.40;;
3841;SDS011;1936;47.074;15.336;2024-03-23T07:53:43;4.37;;;3.20;;
3841;SDS011;1936;47.074;15.336;2024-03-23T07:55:51;3.60;;;2.60;;
3841;SDS011;1936;47.074;15.336;2024-03-23T07:57:54;6.43;;;3.70;;
3841;SDS011;1936;47.074;15.336;2024-03-23T07:59:57;7.50;;;2.83;;
3841;SDS011;1936;47.074;15.336;2024-03-23T08:01:58;6.50;;;3.10;;
3841;SDS011;1936;47.074;15.336;2024-03-23T08:04:01;3.30;;;2.83;;
3841;SDS011;1936;47.074;15.336;2024-03-23T08:06:19;4.63;;;3.07;;
3841;SDS011;1936;47.074;15.336;2024-03-23T08:08:22;3.50;;;2.87;;
3841;SDS011;1936;47.074;15.336;2024-03-23T08:10:24;3.23;;;2.43;;
3841;SDS011;1936;47.074;15.336;2024-03-23T08:12:26;3.67;;;2.50;;
3841;SDS011;1936;47.074;15.336;2024-03-23T08:14:28;3.67;;;2.40;;
3841;SDS011;1936;47.074;15.336;2024-03-23T08:16:31;2.67;;;2.10;;
3841;SDS011;1936;47.074;15.336;2024-03-23T08:18:34;2.33;;;2.10;;
3841;SDS011;1936;47.074;15.336;2024-03-23T08:20:37;3.30;;;3.00;;
3841;SDS011;1936;47.074;15.336;2024-03-23T08:22:40;3.10;;;2.70;;
3841;SDS011;1936;47.074;15.336;2024-03-23T08:24:42;4.17;;;2.50;;
3841;SDS011;1936;47.074;15.336;2024-03-23T08:26:44;4.47;;;2.80;;
3841;SDS011;1936;47.074;15.336;2024-03-23T08:28:46;3.23;;;2.63;;
3841;SDS011;1936;47.074;15.336;2024-03-23T08:30:48;2.90;;;2.43;;
3841;SDS011;1936;47.074;15.336;2024-03-23T08:32:51;2.40;;;2.20;;
3841;SDS011;1936;47.074;15.336;2024-03-23T08:34:52;3.37;;;2.40;;
3841;SDS011;1936;47.074;15.336;2024-03-23T08:36:55;2.43;;;2.23;;
3841;SDS011;1936;47.074;15.336;2024-03-23T08:38:58;2.77;;;2.50;;
3841;SDS011;1936;47.074;15.336;2024-03-23T08:41:01;3.83;;;2.53;;
3841;SDS011;1936;47.074;15.336;2024-03-23T08:43:03;4.20;;;2.40;;
3841;SDS011;1936;47.074;15.336;2024-03-23T08:45:06;3.00;;;2.70;;
3841;SDS011;1936;47.074;15.336;2024-03-23T08:47:08;10.17;;;2.30;;
3841;SDS011;1936;47.074;15.336;2024-03-23T08:49:11;2.50;;;2.30;;
3841;SDS011;1936;47.074;15.336;2024-03-23T08:51:13;6.77;;;2.20;;
3841;SDS011;1936;47.074;15.336;2024-03-23T08:53:16;2.50;;;2.07;;
3841;SDS011;1936;47.074;15.336;2024-03-23T08:55:19;3.10;;;2.33;;
3841;SDS011;1936;47.074;15.336;2024-03-23T08:57:22;1.93;;;1.50;;
3841;SDS011;1936;47.074;15.336;2024-03-23T08:59:23;6.10;;;2.20;;
3841;SDS011;1936;47.074;15.336;2024-03-23T09:01:26;2.43;;;2.00;;
3841;SDS011;1936;47.074;15.336;2024-03-23T09:03:27;2.73;;;2.07;;
3841;SDS011;1936;47.074;15.336;2024-03-23T09:05:30;2.07;;;1.67;;
3841;SDS011;1936;47.074;15.336;2024-03-23T09:07:36;1.60;;;1.50;;
3841;SDS011;1936;47.074;15.336;2024-03-23T09:09:38;2.10;;;1.90;;
3841;SDS011;1936;47.074;15.336;2024-03-23T09:11:42;1.70;;;1.60;;
3841;SDS011;1936;47.074;15.336;2024-03-23T09:13:44;2.60;;;1.90;;
3841;SDS011;1936;47.074;15.336;2024-03-23T09:15:47;2.70;;;2.00;;
3841;SDS011;1936;47.074;15.336;2024-03-23T09:17:51;3.17;;;2.07;;
3841;SDS011;1936;47.074;15.336;2024-03-23T09:19:52;3.00;;;2.70;;
3841;SDS011;1936;47.074;15.336;2024-03-23T09:21:55;1.63;;;1.50;;
3841;SDS011;1936;47.074;15.336;2024-03-23T09:23:56;2.53;;;2.30;;
3841;SDS011;1936;47.074;15.336;2024-03-23T09:26:04;2.37;;;1.90;;
3841;SDS011;1936;47.074;15.336;2024-03-23T09:28:09;10.00;;;2.03;;
3841;SDS011;1936;47.074;15.336;2024-03-23T09:30:12;2.37;;;2.07;;
3841;SDS011;1936;47.074;15.336;2024-03-23T09:32:14;2.60;;;2.27;;
3841;SDS011;1936;47.074;15.336;2024-03-23T09:34:17;2.17;;;2.03;;
3841;SDS011;1936;47.074;15.336;2024-03-23T09:36:18;2.30;;;2.10;;
3841;SDS011;1936;47.074;15.336;2024-03-23T09:38:21;3.10;;;1.90;;
3841;SDS011;1936;47.074;15.336;2024-03-23T09:40:22;8.07;;;2.30;;
3841;SDS011;1936;47.074;15.336;2024-03-23T09:42:24;2.80;;;1.80;;
3841;SDS011;1936;47.074;15.336;2024-03-23T09:44:27;2.10;;;1.90;;
3841;SDS011;1936;47.074;15.336;2024-03-23T09:46:31;3.57;;;2.27;;
3841;SDS011;1936;47.074;15.336;2024-03-23T09:48:34;2.73;;;2.53;;
3841;SDS011;1936;47.074;15.336;2024-03-23T09:50:38;2.93;;;2.67;;
3841;SDS011;1936;47.074;15.336;2024-03-23T09:52:40;2.50;;;2.30;;
3841;SDS011;1936;47.074;15.336;2024-03-23T09:54:43;4.60;;;2.83;;
3841;SDS011;1936;47.074;15.336;2024-03-23T09:56:44;2.93;;;1.73;;
3841;SDS011;1936;47.074;15.336;2024-03-23T09:58:47;1.87;;;1.77;;
3841;SDS011;1936;47.074;15.336;2024-03-23T10:00:50;2.30;;;2.10;;
3841;SDS011;1936;47.074;15.336;2024-03-23T10:02:54;1.97;;;1.80;;
3841;SDS011;1936;47.074;15.336;2024-03-23T10:04:56;2.47;;;2.27;;
3841;SDS011;1936;47.074;15.336;2024-03-23T10:07:01;3.30;;;2.30;;
3841;SDS011;1936;47.074;15.336;2024-03-23T10:09:16;5.63;;;2.87;;
3841;SDS011;1936;47.074;15.336;2024-03-23T10:11:20;4.47;;;3.15;;
3841;SDS011;1936;47.074;15.336;2024-03-23T10:13:25;6.57;;;3.10;;
3841;SDS011;1936;47.074;15.336;2024-03-23T10:15:28;3.73;;;3.20;;
3841;SDS011;1936;47.074;15.336;2024-03-23T10:17:31;4.10;;;2.43;;
3841;SDS011;1936;47.074;15.336;2024-03-23T10:19:33;3.63;;;2.70;;
3841;SDS011;1936;47.074;15.336;2024-03-23T10:21:35;4.90;;;2.77;;
3841;SDS011;1936;47.074;15.336;2024-03-23T10:23:38;2.37;;;2.17;;
3841;SDS011;1936;47.074;15.336;2024-03-23T10:25:40;2.23;;;2.00;;
3841;SDS011;1936;47.074;15.336;2024-03-23T10:27:43;3.00;;;2.80;;
3841;SDS011;1936;47.074;15.336;2024-03-23T10:29:45;2.40;;;2.23;;
3841;SDS011;1936;47.074;15.336;2024-03-23T10:31:47;2.67;;;2.47;;
3841;SDS011;1936;47.074;15.336;2024-03-23T10:33:51;2.80;;;2.30;;
3841;SDS011;1936;47.074;15.336;2024-03-23T10:35:55;2.60;;;2.27;;
3841;SDS011;1936;47.074;15.336;2024-03-23T10:37:56;3.60;;;2.80;;
3841;SDS011;1936;47.074;15.336;2024-03-23T10:39:59;7.20;;;2.37;;
3841;SDS011;1936;47.074;15.336;2024-03-23T10:42:04;2.00;;;1.80;;
3841;SDS011;1936;47.074;15.336;2024-03-23T10:44:08;2.43;;;1.97;;
3841;SDS011;1936;47.074;15.336;2024-03-23T10:46:10;2.93;;;2.00;;
3841;SDS011;1936;47.074;15.336;2024-03-23T10:48:12;2.13;;;1.70;;
3841;SDS011;1936;47.074;15.336;2024-03-23T10:50:15;4.80;;;2.17;;
3841;SDS011;1936;47.074;15.336;2024-03-23T10:52:16;2.20;;;1.97;;
3841;SDS011;1936;47.074;15.336;2024-03-23T10:54:20;2.77;;;2.30;;
3841;SDS011;1936;47.074;15.336;2024-03-23T10:56:22;2.03;;;1.63;;
3841;SDS011;1936;47.074;15.336;2024-03-23T10:58:26;1.77;;;1.60;;
3841;SDS011;1936;47.074;15.336;2024-03-23T11:00:30;2.23;;;1.60;;
3841;SDS011;1936;47.074;15.336;2024-03-23T11:02:33;3.33;;;2.10;;
3841;SDS011;1936;47.074;15.336;2024-03-23T11:04:35;2.07;;;1.77;;
3841;SDS011;1936;47.074;15.336;2024-03-23T11:06:41;2.43;;;1.87;;
3841;SDS011;1936;47.074;15.336;2024-03-23T11:08:43;2.30;;;2.10;;
3841;SDS011;1936;47.074;15.336;2024-03-23T11:10:46;1.70;;;1.60;;
3841;SDS011;1936;47.074;15.336;2024-03-23T11:12:48;2.40;;;2.03;;
3841;SDS011;1936;47.074;15.336;2024-03-23T11:14:50;2.13;;;1.70;;
3841;SDS011;1936;47.074;15.336;2024-03-23T11:17:08;2.80;;;2.20;;
3841;SDS011;1936;47.074;15.336;2024-03-23T11:21:52;2.90;;;1.90;;
3841;SDS011;1936;47.074;15.336;2024-03-23T11:23:54;1.73;;;1.63;;
3841;SDS011;1936;47.074;15.336;2024-03-23T11:25:56;1.83;;;1.73;;
3841;SDS011;1936;47.074;15.336;2024-03-23T11:27:58;1.73;;;1.60;;
3841;SDS011;1936;47.074;15.336;2024-03-23T11:30:13;1.83;;;1.70;;
3841;SDS011;1936;47.074;15.336;2024-03-23T11:32:15;2.90;;;1.93;;
3841;SDS011;1936;47.074;15.336;2024-03-23T11:34:18;1.70;;;1.60;;
3841;SDS011;1936;47.074;15.336;2024-03-23T11:36:20;2.90;;;1.80;;
3841;SDS011;1936;47.074;15.336;2024-03-23T11:38:24;2.30;;;1.97;;
3841;SDS011;1936;47.074;15.336;2024-03-23T11:40:25;1.73;;;1.63;;
3841;SDS011;1936;47.074;15.336;2024-03-23T11:42:28;1.77;;;1.50;;
3841;SDS011;1936;47.074;15.336;2024-03-23T11:44:30;1.80;;;1.70;;
3841;SDS011;1936;47.074;15.336;2024-03-23T11:46:32;2.20;;;1.80;;
3841;SDS011;1936;47.074;15.336;2024-03-23T11:48:34;5.00;;;1.97;;
3841;SDS011;1936;47.074;15.336;2024-03-23T11:50:37;2.43;;;1.90;;
3841;SDS011;1936;47.074;15.336;2024-03-23T11:52:41;6.60;;;2.10;;
3841;SDS011;1936;47.074;15.336;2024-03-23T11:54:45;2.30;;;2.17;;
3841;SDS011;1936;47.074;15.336;2024-03-23T11:59:09;2.23;;;1.70;;
3841;SDS011;1936;47.074;15.336;2024-03-23T12:01:12;2.97;;;1.97;;
3841;SDS011;1936;47.074;15.336;2024-03-23T12:03:14;3.50;;;2.10;;
3841;SDS011;1936;47.074;15.336;2024-03-23T12:05:17;2.20;;;1.97;;
3841;SDS011;1936;47.074;15.336;2024-03-23T12:07:20;4.63;;;2.20;;
3841;SDS011;1936;47.074;15.336;2024-03-23T12:09:23;4.27;;;2.53;;
3841;SDS011;1936;47.074;15.336;2024-03-23T12:11:26;3.73;;;2.37;;
3841;SDS011;1936;47.074;15.336;2024-03-23T12:13:29;4.57;;;2.33;;
3841;SDS011;1936;47.074;15.336;2024-03-23T12:15:30;5.03;;;2.60;;
3841;SDS011;1936;47.074;15.336;2024-03-23T12:17:33;4.80;;;3.20;;
3841;SDS011;1936;47.074;15.336;2024-03-23T12:19:35;3.50;;;2.60;;
3841;SDS011;1936;47.074;15.336;2024-03-23T12:21:38;4.20;;;3.40;;
3841;SDS011;1936;47.074;15.336;2024-03-23T12:23:39;3.50;;;3.10;;
3841;SDS011;1936;47.074;15.336;2024-03-23T12:25:43;2.73;;;2.53;;
3841;SDS011;1936;47.074;15.336;2024-03-23T12:27:46;3.33;;;3.03;;
3841;SDS011;1936;47.074;15.336;2024-03-23T12:29:48;3.10;;;2.90;;
3841;SDS011;1936;47.074;15.336;2024-03-23T12:31:50;3.23;;;2.57;;
3841;SDS011;1936;47.074;15.336;2024-03-23T12:33:52;2.87;;;2.10;;
3841;SDS011;1936;47.074;15.336;2024-03-23T12:35:54;2.80;;;2.43;;
3841;SDS011;1936;47.074;15.336;2024-03-23T12:37:56;3.70;;;2.53;;
3841;SDS011;1936;47.074;15.336;2024-03-23T12:39:58;3.73;;;3.37;;
3841;SDS011;1936;47.074;15.336;2024-03-23T12:42:00;5.53;;;3.50;;
3841;SDS011;1936;47.074;15.336;2024-03-23T12:44:04;3.83;;;3.47;;
3841;SDS011;1936;47.074;15.336;2024-03-23T12:46:09;6.10;;;3.33;;
3841;SDS011;1936;47.074;15.336;2024-03-23T12:48:12;4.53;;;4.13;;
3841;SDS011;1936;47.074;15.336;2024-03-23T12:50:14;5.27;;;3.30;;
3841;SDS011;1936;47.074;15.336;2024-03-23T12:52:16;3.00;;;2.77;;
3841;SDS011;1936;47.074;15.336;2024-03-23T12:54:20;3.53;;;2.70;;
3841;SDS011;1936;47.074;15.336;2024-03-23T12:56:22;3.00;;;1.90;;
3841;SDS011;1936;47.074;15.336;2024-03-23T12:58:24;4.17;;;2.30;;
3841;SDS011;1936;47.074;15.336;2024-03-23T13:00:27;2.87;;;2.67;;
3841;SDS011;1936;47.074;15.336;2024-03-23T13:02:29;2.83;;;2.60;;
3841;SDS011;1936;47.074;15.336;2024-03-23T13:04:31;3.00;;;2.60;;
3841;SDS011;1936;47.074;15.336;2024-03-23T13:06:33;2.80;;;2.60;;
3841;SDS011;1936;47.074;15.336;2024-03-23T13:08:35;5.63;;;2.67;;
3841;SDS011;1936;47.074;15.336;2024-03-23T13:10:37;2.33;;;1.93;;
3841;SDS011;1936;47.074;15.336;2024-03-23T13:12:39;2.57;;;2.37;;
3841;SDS011;1936;47.074;15.336;2024-03-23T13:14:43;2.80;;;2.60;;
3841;SDS011;1936;47.074;15.336;2024-03-23T13:16:46;2.70;;;2.50;;
3841;SDS011;1936;47.074;15.336;2024-03-23T13:18:48;4.30;;;2.57;;
3841;SDS011;1936;47.074;15.336;2024-03-23T13:20:51;2.90;;;2.60;;
3841;SDS011;1936;47.074;15.336;2024-03-23T13:22:53;2.40;;;2.17;;
3841;SDS011;1936;47.074;15.336;2024-03-23T13:24:54;3.87;;;2.90;;
3841;SDS011;1936;47.074;15.336;2024-03-23T13:26:57;2.90;;;2.70;;
3841;SDS011;1936;47.074;15.336;2024-03-23T13:28:59;3.13;;;2.83;;